Time;durP1;ratioP1;P1;durP2;ratioP2;P2;SDS_P1;SDS_P2;PMS_P1;PMS_P2;Temp;Humidity;BMP_temperature;BMP_pressure;BME280_temperature;BME280_humidity;BME280_pressure;Samples;Min_cycle;Max_cycle;Signal;HPM_P1;HPM_P2
2022/06/29 00:00:50;;;;;;;5.63;5.23;;;19.50;99.90;;;;;;6069051;23;20471;-78
2022/06/29 00:03:18;;;;;;;5.80;5.37;;;19.50;99.90;;;;;;6065378;23;20481;-77
2022/06/29 00:05:45;;;;;;;7.00;5.93;;;19.50;99.90;;;;;;6063046;23;20538;-77
2022/06/29 00:08:14;;;;;;;6.67;6.17;;;19.40;99.90;;;;;;6061394;23;20439;-78
2022/06/29 00:10:41;;;;;;;7.17;6.60;;;19.30;99.90;;;;;;6059903;23;20475;-78
2022/06/29 00:13:09;;;;;;;7.10;6.60;;;19.30;99.90;;;;;;6039247;23;20447;-77
2022/06/29 00:15:37;;;;;;;7.43;6.83;;;19.20;99.90;;;;;;6066187;23;20439;-79
2022/06/29 00:18:04;;;;;;;11.67;10.73;;;19.10;99.90;;;;;;6067964;23;20449;-78
2022/06/29 00:20:32;;;;;;;6.17;5.67;;;19.00;99.90;;;;;;6061189;23;20439;-78
2022/06/29 00:22:59;;;;;;;5.80;5.40;;;19.00;99.90;;;;;;6056381;23;20538;-79
2022/06/29 00:25:26;;;;;;;6.20;5.70;;;19.00;99.90;;;;;;6059421;23;20834;-78
2022/06/29 00:27:53;;;;;;;5.80;5.40;;;19.00;99.90;;;;;;6060891;23;20446;-78
2022/06/29 00:30:21;;;;;;;5.40;5.10;;;19.00;99.90;;;;;;6059234;23;20526;-78
2022/06/29 00:32:47;;;;;;;5.63;5.23;;;19.10;99.90;;;;;;6057582;23;20451;-81
2022/06/29 00:35:14;;;;;;;4.93;4.63;;;19.20;99.90;;;;;;6056321;23;20464;-77
2022/06/29 00:37:43;;;;;;;5.37;5.00;;;19.30;99.90;;;;;;6059803;23;20509;-77
2022/06/29 00:40:11;;;;;;;5.20;4.90;;;19.30;99.90;;;;;;6055496;23;21398;-77
2022/06/29 00:42:38;;;;;;;5.20;4.80;;;19.40;99.90;;;;;;6059967;23;20501;-77
2022/06/29 00:45:07;;;;;;;5.57;5.23;;;19.40;99.90;;;;;;6060365;23;20467;-77
2022/06/29 00:47:33;;;;;;;6.20;5.57;;;19.50;99.90;;;;;;6060640;23;20447;-78
2022/06/29 00:50:00;;;;;;;5.70;5.30;;;19.50;99.90;;;;;;6026565;23;20530;-77
2022/06/29 00:52:30;;;;;;;5.83;5.33;;;19.50;99.90;;;;;;6059170;23;20436;-77
2022/06/29 00:55:06;;;;;;;7.57;5.37;;;19.50;99.90;;;;;;6057859;23;20551;-77
2022/06/29 00:57:38;;;;;;;5.40;5.00;;;19.50;99.90;;;;;;6055761;23;20788;-77
2022/06/29 01:00:08;;;;;;;5.60;5.10;;;19.60;99.90;;;;;;6056778;23;20443;-77
2022/06/29 01:02:35;;;;;;;5.07;4.67;;;19.50;99.90;;;;;;6058661;23;20934;-77
2022/06/29 01:05:04;;;;;;;5.57;5.17;;;19.50;99.90;;;;;;6057917;23;20879;-77
2022/06/29 01:07:33;;;;;;;5.13;4.73;;;19.50;99.90;;;;;;6059436;23;20541;-79
2022/06/29 01:10:02;;;;;;;5.37;4.90;;;19.50;99.90;;;;;;6058300;23;20982;-77
2022/06/29 01:12:29;;;;;;;5.53;5.13;;;19.50;99.90;;;;;;6057103;23;20447;-77
2022/06/29 01:14:56;;;;;;;4.93;4.60;;;19.50;99.90;;;;;;6059070;23;20471;-77
2022/06/29 01:17:24;;;;;;;5.43;4.53;;;19.50;99.90;;;;;;6058601;23;20447;-77
2022/06/29 01:19:51;;;;;;;6.30;5.80;;;19.50;99.90;;;;;;6056972;23;21165;-77
2022/06/29 01:22:21;;;;;;;6.23;5.73;;;19.50;99.90;;;;;;6060155;23;20470;-77
2022/06/29 01:24:50;;;;;;;5.87;5.37;;;19.40;99.90;;;;;;6059178;23;21036;-77
2022/06/29 01:27:19;;;;;;;6.47;5.83;;;19.40;99.90;;;;;;6057782;23;20550;-77
2022/06/29 01:29:47;;;;;;;6.40;5.97;;;19.30;99.90;;;;;;6058298;23;20467;-77
2022/06/29 01:32:14;;;;;;;7.30;6.70;;;19.20;99.90;;;;;;6059823;23;20443;-77
2022/06/29 01:34:41;;;;;;;7.27;6.67;;;19.20;99.90;;;;;;6059764;23;20463;-77
2022/06/29 01:37:08;;;;;;;7.00;6.40;;;19.10;99.90;;;;;;6060287;23;20454;-77
2022/06/29 01:39:38;;;;;;;6.40;5.90;;;19.00;99.90;;;;;;6060056;23;20514;-77
2022/06/29 01:42:05;;;;;;;6.70;6.20;;;18.90;99.90;;;;;;6058766;23;20440;-77
2022/06/29 01:44:33;;;;;;;6.10;5.70;;;18.80;99.90;;;;;;6057060;23;20510;-77
2022/06/29 01:47:01;;;;;;;7.93;7.33;;;18.80;99.90;;;;;;6060778;23;21001;-77
2022/06/29 01:49:28;;;;;;;6.83;6.40;;;18.70;99.90;;;;;;6059096;23;20470;-77
2022/06/29 01:51:55;;;;;;;7.37;6.87;;;18.70;99.90;;;;;;6059815;23;20448;-77
2022/06/29 01:54:22;;;;;;;6.70;6.30;;;18.70;99.90;;;;;;6059580;23;20466;-77
2022/06/29 01:56:50;;;;;;;7.17;6.57;;;18.60;99.90;;;;;;6057976;23;20539;-77
2022/06/29 01:59:17;;;;;;;6.83;6.40;;;18.60;99.90;;;;;;6061826;23;20451;-77
2022/06/29 02:01:45;;;;;;;7.60;7.10;;;18.60;99.90;;;;;;6059939;23;20453;-79
2022/06/29 02:04:12;;;;;;;6.87;6.37;;;18.60;99.90;;;;;;6059758;23;20467;-79
2022/06/29 02:06:39;;;;;;;6.83;6.33;;;18.60;99.90;;;;;;6057806;23;20938;-79
2022/06/29 02:09:06;;;;;;;7.43;6.93;;;18.60;99.90;;;;;;6059931;23;21145;-79
2022/06/29 02:11:33;;;;;;;7.20;6.67;;;18.60;99.90;;;;;;6059094;23;20861;-77
2022/06/29 02:14:02;;;;;;;7.60;6.90;;;18.50;99.90;;;;;;6058065;23;20475;-79
2022/06/29 02:16:29;;;;;;;6.60;6.10;;;18.60;99.90;;;;;;6059592;23;20450;-79
2022/06/29 02:18:56;;;;;;;6.90;6.40;;;18.60;99.90;;;;;;6059149;23;20452;-77
2022/06/29 02:21:23;;;;;;;7.50;7.00;;;18.60;99.90;;;;;;6058311;23;20493;-77
2022/06/29 02:23:51;;;;;;;7.80;7.30;;;18.70;99.90;;;;;;6059884;23;20900;-78
2022/06/29 02:26:18;;;;;;;7.63;6.53;;;18.80;99.90;;;;;;6061768;23;20558;-78
2022/06/29 02:28:45;;;;;;;7.20;6.60;;;18.70;99.90;;;;;;6054120;23;20466;-79
2022/06/29 02:36:43;;;;;;;6.83;6.33;;;18.60;99.90;;;;;;6057364;23;20447;-77
2022/06/29 02:39:09;;;;;;;7.73;7.13;;;18.50;99.90;;;;;;6058811;23;21005;-78
2022/06/29 02:41:36;;;;;;;6.90;6.40;;;18.40;99.90;;;;;;6057921;23;20451;-77
2022/06/29 02:44:04;;;;;;;6.60;6.10;;;18.40;99.90;;;;;;6054465;23;20471;-77
2022/06/29 02:46:33;;;;;;;6.87;6.37;;;18.50;99.90;;;;;;6050948;23;21348;-77
2022/06/29 02:48:59;;;;;;;6.33;5.93;;;18.50;99.90;;;;;;6060504;23;20444;-77
2022/06/29 02:51:27;;;;;;;6.97;6.37;;;18.50;99.90;;;;;;6059865;23;20483;-78
2022/06/29 02:53:54;;;;;;;7.43;6.83;;;18.50;99.90;;;;;;6059820;23;20463;-78
2022/06/29 02:56:20;;;;;;;6.97;6.30;;;18.60;99.90;;;;;;6057648;23;20443;-78
2022/06/29 02:58:48;;;;;;;6.70;6.20;;;18.60;99.90;;;;;;6049744;23;20474;-77
2022/06/29 03:01:14;;;;;;;7.50;7.00;;;18.60;99.90;;;;;;6058710;23;20443;-77
2022/06/29 03:03:43;;;;;;;6.83;6.37;;;18.60;99.90;;;;;;6059138;23;20459;-77
2022/06/29 03:06:10;;;;;;;7.30;6.77;;;18.60;99.90;;;;;;6058950;23;20497;-77
2022/06/29 03:08:37;;;;;;;6.80;6.20;;;18.50;99.90;;;;;;6059439;23;20529;-77
2022/06/29 03:11:04;;;;;;;6.10;5.80;;;18.40;99.90;;;;;;6058121;23;20966;-78
2022/06/29 03:13:31;;;;;;;7.40;6.80;;;18.30;99.90;;;;;;6061691;23;20463;-78
2022/06/29 03:15:58;;;;;;;7.10;6.60;;;18.20;99.90;;;;;;6058757;23;20525;-78
2022/06/29 03:18:26;;;;;;;8.23;7.43;;;18.10;99.90;;;;;;6059179;23;20467;-77
2022/06/29 03:20:55;;;;;;;7.77;7.27;;;18.00;99.90;;;;;;6059522;23;20457;-78
2022/06/29 03:23:22;;;;;;;7.30;6.60;;;18.00;99.90;;;;;;6060014;23;20472;-78
2022/06/29 03:25:49;;;;;;;7.70;7.10;;;18.00;99.90;;;;;;6058289;23;20448;-77
2022/06/29 03:28:16;;;;;;;7.60;7.10;;;17.90;99.90;;;;;;6059676;23;20459;-77
2022/06/29 03:30:43;;;;;;;6.93;6.40;;;17.90;99.90;;;;;;6058315;23;20471;-77
2022/06/29 03:33:10;;;;;;;8.07;7.57;;;17.90;99.90;;;;;;6061304;23;20467;-77
2022/06/29 03:35:38;;;;;;;6.77;6.27;;;17.90;99.90;;;;;;6060193;23;20581;-77
2022/06/29 03:38:06;;;;;;;6.90;6.50;;;18.00;99.90;;;;;;6060255;23;21011;-77
2022/06/29 03:40:33;;;;;;;7.87;7.17;;;18.00;99.90;;;;;;6060771;23;20934;-77
2022/06/29 03:43:01;;;;;;;6.47;6.07;;;18.00;99.90;;;;;;6060608;23;20521;-77
2022/06/29 03:45:28;;;;;;;6.67;6.17;;;18.10;99.90;;;;;;6051981;23;20959;-78
2022/06/29 03:47:55;;;;;;;8.20;7.50;;;18.20;99.90;;;;;;6060150;23;20522;-78
2022/06/29 03:50:22;;;;;;;6.60;6.10;;;18.20;99.90;;;;;;6059302;23;20467;-77
2022/06/29 03:52:50;;;;;;;7.00;6.50;;;18.20;99.90;;;;;;6055806;23;20962;-78
2022/06/29 03:55:18;;;;;;;6.87;6.27;;;18.30;99.90;;;;;;6056404;23;20459;-78
2022/06/29 03:57:45;;;;;;;6.83;6.23;;;18.30;99.90;;;;;;6058445;23;20443;-77
2022/06/29 04:00:13;;;;;;;7.57;6.83;;;18.40;99.90;;;;;;6059622;23;20443;-77
2022/06/29 04:02:41;;;;;;;7.67;7.07;;;18.40;99.90;;;;;;6060448;23;20459;-78
2022/06/29 04:05:09;;;;;;;8.03;7.47;;;18.30;99.90;;;;;;6060307;23;20451;-77
2022/06/29 04:07:37;;;;;;;8.70;8.00;;;18.40;99.90;;;;;;6058538;23;20450;-77
2022/06/29 04:10:04;;;;;;;8.40;7.70;;;18.30;99.90;;;;;;6060061;23;20448;-77
2022/06/29 04:12:34;;;;;;;7.97;7.37;;;18.30;99.90;;;;;;6059231;23;20487;-78
2022/06/29 04:15:03;;;;;;;7.50;6.90;;;18.30;99.90;;;;;;6059905;23;20444;-77
2022/06/29 04:17:31;;;;;;;7.40;6.90;;;18.30;99.90;;;;;;6059686;23;20435;-78
2022/06/29 04:19:58;;;;;;;8.10;7.40;;;18.30;99.90;;;;;;6057381;23;20454;-77
2022/06/29 04:22:25;;;;;;;8.03;7.53;;;18.30;99.90;;;;;;6059350;23;20475;-77
2022/06/29 04:24:52;;;;;;;7.80;7.20;;;18.30;99.90;;;;;;6059842;23;20470;-78
2022/06/29 04:27:19;;;;;;;7.50;7.00;;;18.30;99.90;;;;;;6060771;23;20439;-75
2022/06/29 04:29:48;;;;;;;8.60;8.00;;;18.20;99.90;;;;;;6056539;23;20439;-74
2022/06/29 04:32:15;;;;;;;8.70;8.10;;;18.10;99.90;;;;;;6053462;23;20478;-73
2022/06/29 04:34:42;;;;;;;8.93;8.23;;;18.10;99.90;;;;;;6055960;23;20526;-72
2022/06/29 04:37:10;;;;;;;8.50;7.70;;;18.10;99.90;;;;;;6059410;23;20497;-74
2022/06/29 04:39:37;;;;;;;8.60;8.00;;;18.10;99.90;;;;;;6059980;23;20443;-74
2022/06/29 04:42:04;;;;;;;7.77;7.00;;;18.10;99.90;;;;;;6052957;23;20454;-74
2022/06/29 04:44:31;;;;;;;9.00;8.30;;;18.00;99.90;;;;;;6059103;23;20451;-76
2022/06/29 04:47:00;;;;;;;8.77;8.07;;;18.00;99.90;;;;;;6057743;23;20455;-75
2022/06/29 04:49:27;;;;;;;9.30;8.67;;;18.00;99.90;;;;;;6057559;23;20497;-75
2022/06/29 04:51:55;;;;;;;9.03;8.43;;;17.90;99.90;;;;;;6058652;23;20490;-75
2022/06/29 04:54:22;;;;;;;9.83;9.10;;;17.90;99.90;;;;;;6061463;23;20443;-75
2022/06/29 04:56:49;;;;;;;10.20;9.30;;;18.00;99.90;;;;;;6060605;23;21056;-76
2022/06/29 04:59:16;;;;;;;11.17;10.37;;;18.10;99.90;;;;;;6048877;23;20447;-75
2022/06/29 05:01:47;;;;;;;10.57;9.60;;;18.10;99.90;;;;;;6053746;23;20458;-76
2022/06/29 05:04:16;;;;;;;11.40;10.50;;;18.10;99.90;;;;;;6062070;23;20477;-76
2022/06/29 05:06:43;;;;;;;12.30;11.37;;;18.10;99.90;;;;;;6067218;23;20436;-75
2022/06/29 05:09:10;;;;;;;11.77;10.87;;;18.00;99.90;;;;;;6063118;23;20447;-76
2022/06/29 05:11:37;;;;;;;13.53;12.53;;;18.00;99.90;;;;;;6061328;23;20561;-75
2022/06/29 05:14:04;;;;;;;13.27;12.37;;;18.00;99.90;;;;;;6071871;23;20451;-75
2022/06/29 05:16:31;;;;;;;12.20;11.40;;;18.00;99.90;;;;;;6062272;23;20431;-76
2022/06/29 05:18:58;;;;;;;12.73;11.83;;;18.00;99.90;;;;;;6069641;23;20464;-76
2022/06/29 05:21:26;;;;;;;13.90;13.00;;;18.00;99.90;;;;;;6067352;23;20450;-76
2022/06/29 05:23:54;;;;;;;12.97;12.07;;;18.00;99.90;;;;;;6070618;23;20531;-77
2022/06/29 05:26:21;;;;;;;14.30;13.10;;;18.00;99.90;;;;;;6063578;23;20439;-78
2022/06/29 05:28:48;;;;;;;14.23;13.23;;;18.00;99.90;;;;;;6059568;23;20446;-77
2022/06/29 05:31:17;;;;;;;14.47;13.50;;;17.90;99.90;;;;;;6045954;23;20471;-77
2022/06/29 05:33:44;;;;;;;14.70;13.53;;;17.90;99.90;;;;;;6053399;23;20470;-77
2022/06/29 05:36:12;;;;;;;14.37;13.30;;;17.90;99.90;;;;;;6059523;23;20427;-76
2022/06/29 05:38:40;;;;;;;14.57;13.53;;;17.90;99.90;;;;;;6061850;23;20430;-77
2022/06/29 05:41:07;;;;;;;15.90;14.80;;;17.90;99.90;;;;;;6056544;23;20450;-77
2022/06/29 05:43:34;;;;;;;13.90;12.80;;;17.90;99.90;;;;;;6052461;23;20469;-77
2022/06/29 05:46:01;;;;;;;14.20;13.23;;;17.90;99.90;;;;;;6059916;23;20435;-76
2022/06/29 05:48:28;;;;;;;14.00;12.93;;;18.00;99.90;;;;;;6067970;23;20436;-77
2022/06/29 05:50:56;;;;;;;13.17;12.27;;;18.00;99.90;;;;;;6053396;23;20468;-75
2022/06/29 05:53:25;;;;;;;13.90;12.90;;;18.10;99.90;;;;;;6049941;23;20496;-75
2022/06/29 05:55:54;;;;;;;12.83;12.03;;;18.10;99.90;;;;;;6055940;23;20526;-76
2022/06/29 05:58:22;;;;;;;12.90;12.00;;;18.20;99.90;;;;;;6061701;23;20440;-76
2022/06/29 06:00:49;;;;;;;12.70;11.90;;;18.20;99.90;;;;;;6061449;23;20447;-75
2022/06/29 06:03:17;;;;;;;13.80;12.80;;;18.30;99.90;;;;;;6058486;23;20491;-75
2022/06/29 06:05:44;;;;;;;12.37;11.57;;;18.40;99.90;;;;;;6062606;23;20440;-75
2022/06/29 06:08:13;;;;;;;11.20;10.40;;;18.50;99.90;;;;;;6060873;23;20861;-75
2022/06/29 06:10:40;;;;;;;11.63;10.73;;;18.60;99.90;;;;;;6058366;23;20449;-75
2022/06/29 06:13:08;;;;;;;12.27;11.37;;;18.70;99.90;;;;;;6062465;23;20486;-76
2022/06/29 06:15:36;;;;;;;12.10;11.20;;;18.80;99.90;;;;;;6062283;23;20447;-75
2022/06/29 06:18:03;;;;;;;11.87;10.87;;;18.90;99.90;;;;;;6063498;23;20539;-76
2022/06/29 06:20:31;;;;;;;11.73;11.03;;;19.00;99.90;;;;;;6059790;23;20445;-76
2022/06/29 06:22:58;;;;;;;11.87;10.87;;;19.10;99.90;;;;;;6052276;23;20982;-76
2022/06/29 06:25:25;;;;;;;12.20;11.00;;;19.30;99.90;;;;;;6060737;23;20522;-76
2022/06/29 06:27:52;;;;;;;10.17;9.47;;;19.40;99.90;;;;;;6063245;23;20439;-76
2022/06/29 06:30:20;;;;;;;11.00;10.20;;;19.50;99.90;;;;;;6059192;23;20968;-76
2022/06/29 06:32:47;;;;;;;10.40;9.63;;;19.70;99.90;;;;;;6058318;23;20574;-76
2022/06/29 06:35:15;;;;;;;10.57;9.87;;;19.70;99.90;;;;;;6061464;23;20449;-76
2022/06/29 06:37:42;;;;;;;10.67;9.93;;;19.70;99.90;;;;;;6060349;23;20518;-76
2022/06/29 06:42:52;;;;;;;10.80;10.10;;;19.70;99.90;;;;;;5999136;23;20546;-76
2022/06/29 06:45:20;;;;;;;11.00;10.20;;;19.80;99.90;;;;;;6061762;23;20443;-76
2022/06/29 06:47:47;;;;;;;10.53;9.63;;;19.80;99.90;;;;;;6057107;23;20893;-76
2022/06/29 06:50:14;;;;;;;10.00;9.33;;;19.90;99.90;;;;;;6059994;23;20807;-77
2022/06/29 06:52:42;;;;;;;9.93;9.13;;;20.10;99.90;;;;;;6061276;23;20541;-77
2022/06/29 06:55:10;;;;;;;10.80;10.10;;;20.20;99.90;;;;;;6052214;23;20490;-76
2022/06/29 06:57:37;;;;;;;10.40;9.70;;;20.40;99.90;;;;;;6072754;23;20507;-77
2022/06/29 07:00:05;;;;;;;9.30;8.67;;;20.50;99.90;;;;;;6067941;23;20443;-77
2022/06/29 07:02:33;;;;;;;9.80;9.00;;;20.80;99.90;;;;;;6067833;23;20467;-77
2022/06/29 07:05:00;;;;;;;10.10;8.70;;;21.00;99.90;;;;;;6069733;23;20442;-77
2022/06/29 07:07:27;;;;;;;9.03;8.20;;;21.10;99.90;;;;;;6072294;23;20492;-77
2022/06/29 07:09:54;;;;;;;9.63;8.90;;;21.20;99.90;;;;;;6066043;23;20442;-77
2022/06/29 07:12:22;;;;;;;9.77;9.10;;;21.30;99.90;;;;;;6067189;23;20466;-76
2022/06/29 07:14:49;;;;;;;7.87;7.33;;;21.40;99.90;;;;;;6065652;23;20537;-76
2022/06/29 07:17:16;;;;;;;9.00;8.33;;;21.50;99.90;;;;;;6068817;23;21209;-76
2022/06/29 07:19:45;;;;;;;9.67;8.87;;;21.60;99.90;;;;;;6067414;23;20435;-76
2022/06/29 07:22:12;;;;;;;9.10;8.50;;;21.70;99.90;;;;;;6068282;23;20525;-77
2022/06/29 07:24:39;;;;;;;8.50;7.90;;;21.70;99.90;;;;;;6065158;23;20435;-77
2022/06/29 07:27:07;;;;;;;8.47;7.77;;;21.80;99.90;;;;;;6069981;23;20441;-77
2022/06/29 07:29:34;;;;;;;9.23;8.63;;;21.90;99.90;;;;;;6070980;23;20438;-77
2022/06/29 07:32:01;;;;;;;8.93;8.33;;;22.00;99.90;;;;;;6067008;23;20470;-76
2022/06/29 07:34:28;;;;;;;8.27;7.77;;;22.20;99.90;;;;;;6069520;23;20447;-76
2022/06/29 07:36:57;;;;;;;7.97;7.37;;;22.20;99.90;;;;;;6051965;23;20567;-76
2022/06/29 07:39:24;;;;;;;8.20;7.60;;;22.30;99.90;;;;;;6045386;23;20515;-77
2022/06/29 07:41:51;;;;;;;6.67;6.27;;;22.40;99.90;;;;;;6057619;23;20464;-78
2022/06/29 07:44:18;;;;;;;6.60;6.20;;;22.70;99.90;;;;;;6042978;23;20523;-77
2022/06/29 07:46:45;;;;;;;7.67;7.13;;;23.00;99.90;;;;;;6055412;23;20467;-76
2022/06/29 07:49:12;;;;;;;7.00;6.40;;;23.30;99.90;;;;;;6060167;23;20439;-77
2022/06/29 07:51:42;;;;;;;6.93;6.53;;;23.70;99.90;;;;;;6061670;23;20471;-77
2022/06/29 07:54:10;;;;;;;7.23;6.60;;;24.30;99.90;;;;;;6061242;23;20450;-78
2022/06/29 07:56:37;;;;;;;7.17;6.60;;;24.90;99.90;;;;;;6054232;23;20446;-80
2022/06/29 07:59:04;;;;;;;6.40;6.00;;;25.30;99.90;;;;;;6054985;23;20506;-78
2022/06/29 08:01:31;;;;;;;5.93;5.53;;;25.70;99.90;;;;;;6054986;23;20568;-77
2022/06/29 08:03:59;;;;;;;7.37;6.63;;;26.30;99.90;;;;;;6055984;23;20439;-77
2022/06/29 08:06:26;;;;;;;5.70;5.40;;;26.70;99.90;;;;;;6057525;23;20850;-77
2022/06/29 08:08:53;;;;;;;5.70;5.30;;;27.00;99.90;;;;;;6059905;23;20440;-77
2022/06/29 08:11:22;;;;;;;6.03;5.63;;;27.20;99.90;;;;;;6059252;23;20465;-78
2022/06/29 08:13:49;;;;;;;5.87;5.47;;;27.40;99.90;;;;;;6057026;23;20795;-77
2022/06/29 08:16:16;;;;;;;5.37;5.07;;;27.60;99.90;;;;;;6035032;23;20482;-78
2022/06/29 08:18:44;;;;;;;6.10;5.70;;;27.80;99.90;;;;;;6057248;23;20432;-77
2022/06/29 08:21:10;;;;;;;5.30;4.77;;;28.00;99.90;;;;;;6061484;23;20435;-77
2022/06/29 08:23:38;;;;;;;5.60;5.30;;;28.40;99.90;;;;;;6047636;23;20447;-77
2022/06/29 08:26:05;;;;;;;5.70;5.30;;;28.70;99.90;;;;;;6055110;23;20439;-77
2022/06/29 08:28:33;;;;;;;5.20;4.90;;;29.20;99.90;;;;;;6061251;23;20442;-77
2022/06/29 08:31:00;;;;;;;5.37;4.97;;;29.30;99.90;;;;;;6060322;23;20440;-77
2022/06/29 08:33:28;;;;;;;5.10;4.80;;;29.80;99.90;;;;;;6054954;23;20474;-77
2022/06/29 08:35:55;;;;;;;5.90;5.47;;;30.30;99.90;;;;;;6054845;23;20442;-78
2022/06/29 08:38:22;;;;;;;5.30;4.90;;;30.70;99.90;;;;;;6058726;23;20446;-78
2022/06/29 08:40:50;;;;;;;6.50;6.00;;;30.90;99.80;;;;;;6061484;23;20439;-77
2022/06/29 08:43:20;;;;;;;5.73;5.33;;;30.40;99.30;;;;;;6058607;23;20530;-77
2022/06/29 08:45:50;;;;;;;4.57;4.27;;;29.90;99.20;;;;;;6060470;23;20865;-77
2022/06/29 08:48:18;;;;;;;6.10;5.70;;;29.70;99.90;;;;;;6060204;23;20439;-77
2022/06/29 08:50:50;;;;;;;5.17;4.87;;;29.70;99.60;;;;;;6062080;23;21001;-77
2022/06/29 08:53:18;;;;;;;5.47;5.17;;;29.60;99.90;;;;;;6062222;23;20471;-78
2022/06/29 08:55:47;;;;;;;4.70;4.40;;;29.80;99.00;;;;;;6058419;23;20475;-77
2022/06/29 08:58:18;;;;;;;5.53;5.13;;;30.10;99.70;;;;;;6062314;23;20891;-78
2022/06/29 09:00:46;;;;;;;5.23;4.87;;;30.60;97.50;;;;;;6061782;23;20441;-78
2022/06/29 09:03:15;;;;;;;5.40;5.00;;;30.70;97.30;;;;;;6061043;23;21075;-78
2022/06/29 09:05:46;;;;;;;5.37;5.07;;;31.20;96.60;;;;;;6053030;23;20795;-77
2022/06/29 09:08:14;;;;;;;5.40;5.00;;;31.40;96.70;;;;;;6061063;23;20933;-77
2022/06/29 09:10:41;;;;;;;4.70;4.40;;;31.10;96.00;;;;;;6061063;23;20439;-77
2022/06/29 09:13:08;;;;;;;5.00;4.60;;;31.00;96.20;;;;;;6061314;23;21111;-78
2022/06/29 09:15:38;;;;;;;5.27;4.87;;;31.40;96.30;;;;;;6059323;23;20438;-78
2022/06/29 09:18:25;;;;;;;4.83;4.60;;;31.50;94.80;;;;;;6062567;23;20435;-78
2022/06/29 09:20:55;;;;;;;4.83;4.50;;;31.30;94.30;;;;;;6056209;23;20439;-78
2022/06/29 09:23:23;;;;;;;4.90;4.50;;;31.10;95.00;;;;;;6060357;23;20459;-77
2022/06/29 09:25:50;;;;;;;5.13;4.73;;;31.30;94.30;;;;;;6060406;23;20443;-77
2022/06/29 09:28:21;;;;;;;5.27;4.97;;;31.30;94.40;;;;;;6058780;23;21129;-78
2022/06/29 09:30:49;;;;;;;4.50;4.10;;;31.00;94.90;;;;;;6060422;23;20471;-77
2022/06/29 09:33:16;;;;;;;4.13;3.83;;;31.20;95.10;;;;;;6039070;23;20563;-77
2022/06/29 09:35:45;;;;;;;4.73;4.33;;;31.40;94.30;;;;;;6059298;23;20477;-78
2022/06/29 09:38:23;;;;;;;4.00;3.80;;;31.50;94.80;;;;;;6061487;23;20434;-78
2022/06/29 09:41:01;;;;;;;4.37;4.07;;;31.80;94.10;;;;;;6036586;23;20443;-78
2022/06/29 09:43:29;;;;;;;3.70;3.50;;;32.00;93.80;;;;;;6052061;23;20482;-78
2022/06/29 09:45:57;;;;;;;4.07;3.87;;;32.70;93.60;;;;;;6060634;23;20477;-78
2022/06/29 09:48:25;;;;;;;3.70;3.40;;;33.20;92.10;;;;;;6059918;23;20452;-78
2022/06/29 09:50:55;;;;;;;4.10;3.80;;;32.90;92.00;;;;;;6062292;23;20451;-78
2022/06/29 09:53:25;;;;;;;4.07;3.77;;;32.20;92.60;;;;;;6059532;23;20510;-78
2022/06/29 09:55:57;;;;;;;4.33;4.00;;;31.60;92.80;;;;;;6062044;23;20507;-78
2022/06/29 09:58:34;;;;;;;4.43;4.00;;;31.20;93.60;;;;;;6059451;23;20518;-78
2022/06/29 10:03:55;;;;;;;4.37;4.00;;;30.40;94.70;;;;;;6058721;23;20522;-77
2022/06/29 10:06:24;;;;;;;8.30;6.43;;;30.20;96.00;;;;;;6053681;23;20481;-78
2022/06/29 10:08:52;;;;;;;6.07;5.47;;;30.00;96.10;;;;;;6059107;23;20451;-78
2022/06/29 10:14:32;;;;;;;6.50;6.00;;;29.20;97.50;;;;;;6056017;23;20447;-78
2022/06/29 10:17:07;;;;;;;7.17;6.60;;;28.50;98.40;;;;;;6060171;23;20850;-78
2022/06/29 10:19:44;;;;;;;7.10;6.70;;;28.10;99.20;;;;;;6069710;23;20465;-78
2022/06/29 10:22:13;;;;;;;7.80;7.10;;;27.90;99.60;;;;;;6060119;23;20470;-78
2022/06/29 10:25:00;;;;;;;6.80;6.30;;;27.40;99.90;;;;;;6067231;23;20450;-80
2022/06/29 10:27:27;;;;;;;6.60;6.20;;;27.10;99.90;;;;;;6066898;23;20443;-78
2022/06/29 10:30:19;;;;;;;7.23;6.63;;;26.70;99.90;;;;;;6072348;23;20526;-78
2022/06/29 10:32:46;;;;;;;6.70;6.20;;;26.50;99.90;;;;;;6068449;23;20462;-78
2022/06/29 10:35:13;;;;;;;6.43;5.90;;;26.20;99.90;;;;;;6072078;23;20435;-78
2022/06/29 10:37:54;;;;;;;6.53;6.00;;;26.10;99.90;;;;;;6060930;23;20440;-77
2022/06/29 10:40:24;;;;;;;5.20;4.90;;;26.10;99.90;;;;;;6064761;23;20847;-78
2022/06/29 10:45:47;;;;;;;6.50;5.97;;;26.40;99.90;;;;;;5990427;23;20446;-78
2022/06/29 10:48:16;;;;;;;5.33;4.83;;;26.60;99.90;;;;;;6071037;23;20474;-78
2022/06/29 10:50:45;;;;;;;5.77;5.37;;;26.70;99.90;;;;;;6066654;23;20482;-78
2022/06/29 10:53:15;;;;;;;5.40;5.00;;;26.80;99.90;;;;;;6069330;23;20467;-77
2022/06/29 10:55:44;;;;;;;7.20;5.40;;;27.10;99.90;;;;;;6065381;23;20542;-78
2022/06/29 10:58:12;;;;;;;5.03;4.53;;;27.30;99.90;;;;;;6072179;23;20462;-78
2022/06/29 11:00:41;;;;;;;5.90;5.37;;;27.50;99.90;;;;;;6067229;23;20930;-78
2022/06/29 11:03:19;;;;;;;6.50;5.10;;;27.70;99.90;;;;;;6064784;23;20439;-83
2022/06/29 11:15:39;;;;;;;4.20;3.90;;;28.10;99.90;;;;;;6064179;23;20546;-77
2022/06/29 11:16:56;;;;;;;5.03;4.63;;;28.40;99.90;;;;;;6068052;23;20436;-77
2022/06/29 11:19:29;;;;;;;4.57;4.27;;;28.70;99.90;;;;;;6066725;23;20442;-77
2022/06/29 11:22:15;;;;;;;4.93;4.60;;;28.80;99.90;;;;;;6070844;23;20462;-77
2022/06/29 11:24:58;;;;;;;4.13;3.87;;;29.10;99.90;;;;;;6069483;23;20441;-77
2022/06/29 11:27:36;;;;;;;5.00;4.60;;;29.30;99.90;;;;;;6066925;23;20427;-76
2022/06/29 11:30:04;;;;;;;4.20;3.90;;;29.50;99.90;;;;;;6069559;23;20474;-77
2022/06/29 11:32:40;;;;;;;4.67;4.37;;;29.60;99.90;;;;;;6071400;23;20477;-76
2022/06/29 11:35:09;;;;;;;4.30;4.00;;;29.90;99.70;;;;;;6061995;23;21002;-77
2022/06/29 11:37:36;;;;;;;4.43;4.13;;;30.00;99.40;;;;;;6073068;23;20844;-77
2022/06/29 11:40:06;;;;;;;4.40;4.00;;;30.00;98.80;;;;;;6066087;23;20463;-77
2022/06/29 11:45:19;;;;;;;3.97;3.63;;;30.30;98.50;;;;;;6039152;23;20454;-77
2022/06/29 11:47:53;;;;;;;4.27;3.87;;;30.40;98.00;;;;;;6069542;23;20851;-77
2022/06/29 11:50:22;;;;;;;4.47;4.17;;;30.50;97.80;;;;;;6061364;23;20813;-76
2022/06/29 11:52:50;;;;;;;4.50;4.07;;;30.70;97.50;;;;;;6061761;23;20472;-75
2022/06/29 11:55:39;;;;;;;4.20;3.90;;;30.70;97.10;;;;;;6063031;23;21019;-75
2022/06/29 11:58:09;;;;;;;4.90;4.27;;;30.80;97.20;;;;;;6063964;23;20428;-76
2022/06/29 12:00:39;;;;;;;5.10;3.97;;;30.90;97.00;;;;;;6071078;23;20467;-77
2022/06/29 12:03:07;;;;;;;4.40;4.00;;;30.90;96.90;;;;;;6067735;23;20444;-77
2022/06/29 12:05:34;;;;;;;4.77;4.30;;;30.90;96.80;;;;;;6071854;23;20472;-77
2022/06/29 12:08:01;;;;;;;4.17;3.77;;;31.10;97.10;;;;;;6068608;23;20443;-76
2022/06/29 12:10:30;;;;;;;4.20;3.90;;;31.20;96.20;;;;;;6068304;23;20470;-77
2022/06/29 12:12:57;;;;;;;3.70;3.40;;;31.40;96.00;;;;;;6064547;23;20466;-77
2022/06/29 12:15:24;;;;;;;4.30;4.00;;;31.60;96.10;;;;;;6072746;23;20447;-76
2022/06/29 12:17:51;;;;;;;4.63;4.20;;;31.70;96.40;;;;;;6069830;23;20806;-76
2022/06/29 12:20:20;;;;;;;5.23;4.10;;;31.90;95.90;;;;;;6067792;23;22026;-77
2022/06/29 12:22:47;;;;;;;5.13;4.20;;;32.00;96.00;;;;;;6067872;23;20443;-77
2022/06/29 12:25:14;;;;;;;4.33;3.73;;;32.20;95.10;;;;;;6067507;23;20448;-76
2022/06/29 12:27:43;;;;;;;3.70;3.40;;;32.20;95.00;;;;;;6066154;23;20439;-77
2022/06/29 12:30:11;;;;;;;4.30;4.00;;;32.30;94.50;;;;;;6063329;23;20438;-77
2022/06/29 12:32:38;;;;;;;4.70;4.27;;;32.20;94.80;;;;;;6066793;23;20444;-76
2022/06/29 12:35:06;;;;;;;3.70;3.40;;;32.30;94.80;;;;;;6066403;23;20447;-77
2022/06/29 12:37:33;;;;;;;3.77;3.43;;;32.40;94.80;;;;;;6059087;23;20445;-77
2022/06/29 12:40:00;;;;;;;4.57;4.17;;;32.50;93.80;;;;;;6056538;23;21199;-77
2022/06/29 12:42:28;;;;;;;4.93;4.53;;;32.20;93.50;;;;;;6058173;23;20443;-77
2022/06/29 12:44:56;;;;;;;3.70;3.40;;;32.30;94.00;;;;;;6049439;23;20989;-77
2022/06/29 12:47:23;;;;;;;4.53;4.00;;;32.50;94.20;;;;;;6053274;23;20444;-77
2022/06/29 12:49:50;;;;;;;4.23;3.50;;;32.60;92.70;;;;;;6058288;23;20469;-77
2022/06/29 12:52:17;;;;;;;3.93;3.50;;;32.50;92.60;;;;;;6057862;23;20533;-77
2022/06/29 12:54:44;;;;;;;4.97;3.53;;;32.50;91.50;;;;;;6048290;23;21081;-77
2022/06/29 12:57:11;;;;;;;4.13;3.10;;;32.30;90.80;;;;;;6063879;23;20443;-77
2022/06/29 12:59:38;;;;;;;4.07;3.67;;;32.50;91.00;;;;;;6066311;23;20443;-77
2022/06/29 13:02:08;;;;;;;3.50;3.20;;;32.90;90.80;;;;;;6062182;23;20839;-77
2022/06/29 13:04:35;;;;;;;6.07;3.50;;;33.90;90.70;;;;;;6060967;23;20443;-78
2022/06/29 13:07:03;;;;;;;3.37;3.10;;;35.30;88.50;;;;;;6050007;23;20443;-77
2022/06/29 13:09:30;;;;;;;4.70;3.47;;;36.00;85.20;;;;;;6046370;23;20502;-75
2022/06/29 13:11:57;;;;;;;3.80;3.50;;;35.90;85.00;;;;;;6055416;23;20459;-77
2022/06/29 13:14:25;;;;;;;3.50;3.07;;;36.50;84.20;;;;;;6062677;23;21035;-78
2022/06/29 13:16:52;;;;;;;4.37;3.50;;;37.40;78.70;;;;;;6056388;23;20518;-76